createdAt,value
2018-03-29T00:00:04.440Z,78.85
2018-03-29T00:02:35.504Z,78.80
2018-03-29T00:05:06.535Z,78.57
2018-03-29T00:07:37.928Z,78.74
2018-03-29T00:10:08.784Z,78.79
2018-03-29T00:12:39.706Z,78.55
2018-03-29T00:15:10.734Z,78.83
2018-03-29T00:17:41.752Z,78.64
2018-03-29T00:20:12.721Z,78.62
2018-03-29T00:22:43.879Z,78.88
2018-03-29T00:25:14.684Z,78.94
2018-03-29T00:27:45.745Z,79.49
2018-03-29T00:30:16.715Z,79.40
2018-03-29T00:32:47.752Z,80.07
2018-03-29T00:35:18.684Z,80.36
2018-03-29T00:37:49.743Z,80.23
2018-03-29T00:40:20.737Z,80.35
2018-03-29T00:42:51.804Z,80.46
2018-03-29T00:45:22.757Z,80.88
2018-03-29T00:47:54.180Z,80.69
2018-03-29T00:50:24.806Z,81.16
2018-03-29T00:52:55.545Z,80.75
2018-03-29T00:55:26.557Z,80.80
2018-03-29T00:57:57.613Z,81.29
2018-03-29T01:00:28.651Z,81.47
2018-03-29T01:02:59.724Z,81.57
2018-03-29T01:05:30.736Z,81.75
2018-03-29T01:08:01.786Z,81.39
2018-03-29T01:10:32.778Z,81.20
2018-03-29T01:13:03.448Z,81.44
2018-03-29T01:15:34.080Z,81.23
2018-03-29T01:18:04.800Z,81.40
2018-03-29T01:20:35.781Z,81.22
2018-03-29T01:23:06.935Z,81.61
2018-03-29T01:25:37.344Z,81.49
2018-03-29T01:28:08.253Z,81.76
2018-03-29T01:30:38.832Z,81.67
2018-03-29T01:33:09.762Z,81.78
2018-03-29T01:35:40.748Z,81.54
2018-03-29T01:38:12.847Z,81.55
2018-03-29T01:40:43.453Z,81.79
2018-03-29T01:43:14.196Z,81.99
2018-03-29T01:45:44.787Z,82.21
2018-03-29T01:48:15.761Z,82.23
2018-03-29T01:50:46.737Z,82.09
2018-03-29T01:53:17.913Z,82.05
2018-03-29T01:55:48.699Z,82.29
2018-03-29T01:58:25.072Z,82.32
2018-03-29T02:00:54.347Z,82.59
2018-03-29T02:03:23.924Z,82.35
2018-03-29T02:05:53.619Z,82.79
2018-03-29T02:08:23.338Z,82.52
2018-03-29T02:10:53.813Z,82.46
2018-03-29T02:13:24.788Z,82.46
2018-03-29T02:15:55.680Z,82.79
2018-03-29T02:18:26.561Z,83.01
2018-03-29T02:20:57.579Z,82.86
2018-03-29T02:23:28.652Z,82.98
2018-03-29T02:25:59.659Z,83.37
2018-03-29T02:28:30.744Z,83.31
2018-03-29T02:31:01.394Z,83.50
2018-03-29T02:33:32.117Z,83.55
2018-03-29T02:36:02.767Z,84.41
2018-03-29T02:38:33.716Z,83.99
2018-03-29T02:41:04.723Z,84.48
2018-03-29T02:43:35.781Z,84.35
2018-03-29T02:46:06.720Z,84.19
2018-03-29T02:48:37.797Z,84.34
2018-03-29T02:51:08.701Z,84.41
2018-03-29T02:53:39.903Z,84.35
2018-03-29T02:56:10.669Z,84.29
2018-03-29T02:58:41.720Z,84.28
2018-03-29T03:01:12.709Z,84.97
2018-03-29T03:03:43.759Z,84.65
2018-03-29T03:06:14.753Z,84.86
2018-03-29T03:08:45.775Z,85.12
2018-03-29T03:11:16.791Z,85.38
2018-03-29T03:13:47.844Z,84.71
2018-03-29T03:16:18.704Z,84.95
2018-03-29T03:18:49.736Z,84.94
2018-03-29T03:21:20.637Z,84.74
2018-03-29T03:23:51.659Z,84.90
2018-03-29T03:26:22.665Z,84.62
2018-03-29T03:28:53.360Z,84.70
2018-03-29T03:31:23.845Z,84.72
2018-03-29T03:33:54.392Z,84.90
2018-03-29T03:36:25.078Z,85.57
2018-03-29T03:38:55.805Z,85.38
2018-03-29T03:41:26.374Z,85.11
2018-03-29T03:43:57.122Z,85.24
2018-03-29T03:46:27.721Z,85.48
2018-03-29T03:48:58.773Z,85.58
2018-03-29T03:51:29.781Z,85.71
2018-03-29T03:54:00.896Z,85.73
2018-03-29T03:56:32.073Z,85.68
2018-03-29T03:59:02.050Z,85.79
2018-03-29T04:01:39.027Z,85.82
2018-03-29T04:04:08.306Z,85.60
2018-03-29T04:06:37.604Z,85.55
2018-03-29T04:09:06.478Z,85.38
2018-03-29T04:11:37.127Z,85.32
2018-03-29T04:14:07.117Z,85.59
2018-03-29T04:16:37.839Z,85.68
2018-03-29T04:19:08.688Z,85.56
2018-03-29T04:21:39.744Z,85.80
2018-03-29T04:24:10.346Z,85.90
2018-03-29T04:26:41.594Z,86.19
2018-03-29T04:29:12.632Z,86.40
2018-03-29T04:31:43.181Z,86.82
2018-03-29T04:34:13.796Z,86.52
2018-03-29T04:36:45.036Z,86.38
2018-03-29T04:39:15.772Z,86.45
2018-03-29T04:41:46.700Z,86.92
2018-03-29T04:44:17.424Z,86.77
2018-03-29T04:46:48.628Z,86.60
2018-03-29T04:49:19.241Z,86.50
2018-03-29T04:51:49.800Z,86.96
2018-03-29T04:54:20.725Z,86.80
2018-03-29T04:56:51.415Z,86.76
2018-03-29T04:59:22.083Z,86.75
2018-03-29T05:01:52.865Z,86.75
2018-03-29T05:04:23.714Z,86.63
2018-03-29T05:06:54.776Z,86.37
2018-03-29T05:09:25.674Z,86.15
2018-03-29T05:11:56.352Z,86.03
2018-03-29T05:14:27.895Z,86.26
2018-03-29T05:16:58.356Z,86.33
2018-03-29T05:19:29.108Z,86.28
2018-03-29T05:21:59.815Z,86.14
2018-03-29T05:24:30.712Z,86.24
2018-03-29T05:27:01.592Z,86.27
2018-03-29T05:29:32.600Z,86.20
2018-03-29T05:32:03.336Z,86.17
2018-03-29T05:34:33.864Z,86.40
2018-03-29T05:37:04.948Z,86.39
2018-03-29T05:39:35.792Z,86.39
2018-03-29T05:42:06.730Z,86.20
2018-03-29T05:44:37.707Z,86.22
2018-03-29T05:47:10.932Z,86.16
2018-03-29T05:49:40.269Z,85.99
2018-03-29T05:52:10.916Z,85.91
2018-03-29T05:54:41.728Z,85.94
2018-03-29T05:57:18.044Z,86.43
2018-03-29T05:59:54.092Z,87.30
2018-03-29T06:02:30.059Z,87.12
2018-03-29T06:04:59.340Z,86.76
2018-03-29T06:07:28.728Z,86.77
2018-03-29T06:09:59.264Z,86.41
2018-03-29T06:12:28.653Z,86.02
2018-03-29T06:14:58.746Z,85.99
2018-03-29T06:17:28.116Z,86.30
2018-03-29T06:19:57.471Z,86.72
2018-03-29T06:22:26.874Z,86.80
2018-03-29T06:24:56.111Z,86.21
2018-03-29T06:27:25.458Z,85.52
2018-03-29T06:29:55.172Z,85.15
2018-03-29T06:32:25.820Z,85.03
2018-03-29T06:34:57.191Z,84.53
2018-03-29T06:37:27.811Z,84.13
2018-03-29T06:39:58.730Z,84.14
2018-03-29T06:42:29.766Z,83.82
2018-03-29T06:45:00.639Z,83.81
2018-03-29T06:47:31.733Z,83.83
2018-03-29T06:50:02.749Z,82.85
2018-03-29T06:52:33.825Z,82.13
2018-03-29T06:55:04.727Z,81.92
2018-03-29T06:57:35.772Z,82.03
2018-03-29T07:00:06.873Z,82.09
2018-03-29T07:02:37.820Z,81.55
2018-03-29T07:05:08.810Z,81.16
2018-03-29T07:07:39.828Z,81.01
2018-03-29T07:10:11.060Z,79.13
2018-03-29T07:12:42.458Z,77.69
2018-03-29T07:15:13.091Z,75.38
2018-03-29T07:17:43.816Z,74.63
2018-03-29T07:20:14.672Z,73.85
2018-03-29T07:22:45.755Z,72.96
2018-03-29T07:25:16.803Z,72.16
2018-03-29T07:27:47.847Z,72.11
2018-03-29T07:30:18.819Z,72.56
2018-03-29T07:32:49.976Z,72.09
2018-03-29T07:35:20.758Z,72.41
2018-03-29T07:37:51.541Z,72.19
2018-03-29T07:40:22.665Z,71.65
2018-03-29T07:42:53.783Z,72.50
2018-03-29T07:45:24.791Z,70.95
2018-03-29T07:47:55.830Z,69.86
2018-03-29T07:50:26.740Z,68.75
2018-03-29T07:52:57.953Z,67.85
2018-03-29T07:55:28.417Z,68.01
2018-03-29T07:57:59.208Z,68.47
2018-03-29T08:00:30.128Z,67.68
2018-03-29T08:03:00.843Z,68.10
2018-03-29T08:05:31.697Z,68.12
2018-03-29T08:08:02.439Z,67.84
2018-03-29T08:10:33.114Z,67.73
2018-03-29T08:13:03.849Z,68.66
2018-03-29T08:15:34.629Z,67.80
2018-03-29T08:18:05.712Z,68.43
2018-03-29T08:20:37.152Z,68.21
2018-03-29T08:23:07.809Z,68.28
2018-03-29T08:25:38.340Z,68.93
2018-03-29T08:28:08.908Z,68.13
2018-03-29T08:30:39.717Z,68.38
2018-03-29T08:33:10.900Z,67.89
2018-03-29T08:35:41.835Z,66.89
2018-03-29T08:38:16.686Z,66.54
2018-03-29T08:40:46.120Z,66.88
2018-03-29T08:43:15.396Z,65.52
2018-03-29T08:45:45.828Z,65.77
2018-03-29T08:48:16.415Z,65.75
2018-03-29T08:50:47.173Z,65.01
2018-03-29T08:53:17.804Z,65.21
2018-03-29T08:55:48.753Z,65.45
2018-03-29T08:58:19.769Z,65.76
2018-03-29T09:00:51.509Z,66.15
2018-03-29T09:03:22.163Z,65.91
2018-03-29T09:05:52.985Z,65.57
2018-03-29T09:08:23.779Z,64.80
2018-03-29T09:10:54.997Z,63.77
2018-03-29T09:13:25.736Z,63.49
2018-03-29T09:15:56.826Z,64.15
2018-03-29T09:18:27.831Z,64.47
2018-03-29T09:20:58.907Z,64.52
2018-03-29T09:23:29.841Z,63.96
2018-03-29T09:26:00.751Z,63.93
2018-03-29T09:28:31.401Z,63.83
2018-03-29T09:31:02.118Z,63.83
2018-03-29T09:33:32.732Z,64.47
2018-03-29T09:36:03.490Z,64.63
2018-03-29T09:38:34.565Z,64.58
2018-03-29T09:41:05.280Z,64.17
2018-03-29T09:43:35.839Z,64.03
2018-03-29T09:46:07.162Z,63.90
2018-03-29T09:48:37.790Z,63.59
2018-03-29T09:51:08.915Z,62.44
2018-03-29T09:53:39.721Z,62.30
2018-03-29T09:56:10.833Z,62.82
2018-03-29T09:58:41.520Z,62.57
2018-03-29T10:01:12.468Z,62.05
2018-03-29T10:03:41.998Z,61.81
2018-03-29T10:06:33.312Z,58.56
2018-03-29T10:09:02.560Z,58.43
2018-03-29T10:11:31.631Z,57.97
2018-03-29T10:14:00.664Z,57.31
2018-03-29T10:16:30.013Z,55.56
2018-03-29T10:18:59.342Z,53.76
2018-03-29T10:21:28.979Z,54.28
2018-03-29T10:23:58.343Z,53.83
2018-03-29T10:26:27.866Z,50.19
2018-03-29T10:28:57.221Z,48.81
2018-03-29T10:31:26.687Z,49.41
2018-03-29T10:33:56.120Z,49.07
2018-03-29T10:36:25.436Z,48.90
2018-03-29T10:38:54.756Z,49.47
2018-03-29T10:41:29.893Z,48.67
2018-03-29T10:43:59.150Z,48.02
2018-03-29T10:46:28.605Z,49.11
2018-03-29T10:48:58.144Z,48.87
2018-03-29T10:51:27.402Z,49.39
2018-03-29T10:53:58.253Z,48.74
2018-03-29T10:56:28.846Z,48.72
2018-03-29T10:58:59.781Z,49.30
2018-03-29T11:01:30.822Z,47.87
2018-03-29T11:04:01.790Z,47.90
2018-03-29T11:06:32.668Z,49.06
2018-03-29T11:09:03.854Z,49.24
2018-03-29T11:11:34.690Z,50.13
2018-03-29T11:14:05.727Z,50.48
2018-03-29T11:16:36.711Z,50.55
2018-03-29T11:19:07.736Z,48.91
2018-03-29T11:21:38.613Z,50.42
2018-03-29T11:24:09.694Z,51.03
2018-03-29T11:26:40.682Z,49.99
2018-03-29T11:29:11.771Z,48.54
2018-03-29T11:31:42.366Z,48.79
2018-03-29T11:34:13.068Z,47.11
2018-03-29T11:36:43.035Z,46.64
2018-03-29T11:39:13.837Z,47.51
2018-03-29T11:41:44.369Z,46.72
2018-03-29T11:44:15.175Z,46.57
2018-03-29T11:46:45.834Z,45.81
2018-03-29T11:49:16.918Z,46.54
2018-03-29T11:51:47.745Z,45.59
2018-03-29T11:54:18.752Z,46.14
2018-03-29T11:56:49.278Z,45.22
2018-03-29T11:59:19.826Z,45.20
2018-03-29T12:01:50.645Z,45.17
2018-03-29T12:04:21.666Z,45.61
2018-03-29T12:06:52.660Z,45.79
2018-03-29T12:09:23.678Z,46.70
2018-03-29T12:11:54.642Z,46.48
2018-03-29T12:14:25.658Z,44.02
2018-03-29T12:16:56.619Z,43.89
2018-03-29T12:19:27.730Z,43.43
2018-03-29T12:21:58.653Z,44.50
2018-03-29T12:24:29.665Z,42.66
2018-03-29T12:27:00.712Z,42.24
2018-03-29T12:29:31.809Z,41.93
2018-03-29T12:32:02.899Z,41.77
2018-03-29T12:34:33.843Z,41.31
2018-03-29T12:37:04.628Z,40.92
2018-03-29T12:39:35.668Z,40.08
2018-03-29T12:42:06.655Z,39.77
2018-03-29T12:44:37.687Z,39.72
2018-03-29T12:47:12.260Z,39.92
2018-03-29T12:49:45.785Z,39.93
2018-03-29T12:52:14.861Z,40.41
2018-03-29T12:54:54.700Z,41.31
2018-03-29T12:57:34.971Z,42.24
2018-03-29T13:00:04.208Z,41.92
2018-03-29T13:02:33.478Z,39.94
2018-03-29T13:05:02.622Z,39.87
2018-03-29T13:07:31.848Z,39.00
2018-03-29T13:10:01.299Z,39.02
2018-03-29T13:12:30.311Z,38.23
2018-03-29T13:15:04.589Z,38.22
2018-03-29T13:17:33.625Z,39.17
2018-03-29T13:20:02.646Z,38.74
2018-03-29T13:22:31.763Z,38.77
2018-03-29T13:25:00.903Z,36.95
2018-03-29T13:27:29.726Z,37.21
2018-03-29T13:29:58.804Z,37.40
2018-03-29T13:32:27.923Z,37.27
2018-03-29T13:34:57.161Z,36.16
2018-03-29T13:37:26.129Z,36.35
2018-03-29T13:39:56.147Z,36.43
2018-03-29T13:42:26.780Z,36.21
2018-03-29T13:44:57.632Z,36.72
2018-03-29T13:47:28.611Z,36.24
2018-03-29T13:49:59.655Z,37.19
2018-03-29T13:52:30.604Z,37.31
2018-03-29T13:55:01.621Z,37.88
2018-03-29T13:57:32.604Z,37.50
2018-03-29T14:00:03.659Z,36.73
2018-03-29T14:02:34.619Z,36.78
2018-03-29T14:05:05.467Z,37.32
2018-03-29T14:07:36.429Z,36.87
2018-03-29T14:10:07.103Z,36.84
2018-03-29T14:12:37.655Z,36.92
2018-03-29T14:15:08.691Z,36.97
2018-03-29T14:17:39.641Z,37.91
2018-03-29T14:20:10.675Z,37.72
2018-03-29T14:22:41.650Z,37.47
2018-03-29T14:25:12.674Z,37.56
2018-03-29T14:27:43.649Z,36.67
2018-03-29T14:30:14.749Z,36.60
2018-03-29T14:32:45.687Z,36.09
2018-03-29T14:35:16.800Z,35.37
2018-03-29T14:37:47.680Z,35.95
2018-03-29T14:40:18.415Z,37.01
2018-03-29T14:42:48.999Z,36.80
2018-03-29T14:45:19.710Z,37.64
2018-03-29T14:47:50.667Z,37.26
2018-03-29T14:50:21.718Z,37.85
2018-03-29T14:52:52.656Z,37.56
2018-03-29T14:55:23.687Z,36.56
2018-03-29T14:57:54.320Z,36.07
2018-03-29T15:00:24.881Z,36.70
2018-03-29T15:02:55.700Z,36.50
2018-03-29T15:05:26.761Z,36.17
2018-03-29T15:07:57.656Z,36.02
2018-03-29T15:10:28.348Z,36.25
2018-03-29T15:12:59.022Z,36.65
2018-03-29T15:15:29.803Z,37.37
2018-03-29T15:18:03.752Z,37.44
2018-03-29T15:20:33.122Z,37.49
2018-03-29T15:23:02.080Z,37.96
2018-03-29T15:25:32.705Z,38.01
2018-03-29T15:28:03.773Z,38.44
2018-03-29T15:30:34.420Z,38.68
2018-03-29T15:33:05.162Z,38.69
2018-03-29T15:35:35.847Z,39.30
2018-03-29T15:38:06.793Z,39.49
2018-03-29T15:40:37.696Z,39.94
2018-03-29T15:43:08.386Z,40.19
2018-03-29T15:45:38.811Z,39.72
2018-03-29T15:48:09.361Z,40.12
2018-03-29T15:50:40.088Z,39.93
2018-03-29T15:53:10.887Z,40.61
2018-03-29T15:55:41.680Z,40.69
2018-03-29T15:58:12.782Z,40.78
2018-03-29T16:00:43.649Z,40.44
2018-03-29T16:03:14.707Z,40.71
2018-03-29T16:05:45.693Z,40.63
2018-03-29T16:08:16.754Z,40.76
2018-03-29T16:10:47.712Z,40.68
2018-03-29T16:13:18.776Z,40.28
2018-03-29T16:15:49.762Z,40.75
2018-03-29T16:18:20.775Z,41.03
2018-03-29T16:20:51.664Z,41.44
2018-03-29T16:23:22.746Z,41.85
2018-03-29T16:25:53.767Z,41.55
2018-03-29T16:28:24.888Z,41.81
2018-03-29T16:30:55.791Z,41.85
2018-03-29T16:33:26.895Z,42.42
2018-03-29T16:35:58.336Z,42.39
2018-03-29T16:38:29.817Z,42.57
2018-03-29T16:40:59.492Z,42.77
2018-03-29T16:43:30.212Z,42.95
2018-03-29T16:46:00.133Z,43.46
2018-03-29T16:48:30.867Z,43.43
2018-03-29T16:51:01.351Z,43.34
2018-03-29T16:53:32.001Z,43.73
2018-03-29T16:56:02.873Z,43.87
2018-03-29T16:58:34.412Z,43.96
2018-03-29T17:01:05.276Z,44.04
2018-03-29T17:03:35.268Z,44.35
2018-03-29T17:06:05.773Z,44.57
2018-03-29T17:08:36.974Z,44.84
2018-03-29T17:11:08.552Z,44.84
2018-03-29T17:13:39.253Z,44.82
2018-03-29T17:16:09.760Z,44.88
2018-03-29T17:18:40.793Z,45.06
2018-03-29T17:21:15.291Z,45.16
2018-03-29T17:23:44.978Z,45.16
2018-03-29T17:26:14.059Z,45.42
2018-03-29T17:28:44.732Z,45.51
2018-03-29T17:31:15.886Z,45.68
2018-03-29T17:33:46.662Z,45.29
2018-03-29T17:36:18.579Z,45.71
2018-03-29T17:38:49.287Z,46.03
2018-03-29T17:41:19.983Z,46.21
2018-03-29T17:43:50.168Z,46.37
2018-03-29T17:46:20.875Z,46.62
2018-03-29T17:48:51.738Z,46.73
2018-03-29T17:51:22.848Z,46.92
2018-03-29T17:53:53.911Z,47.21
2018-03-29T17:56:24.780Z,47.45
2018-03-29T17:58:55.707Z,47.51
2018-03-29T18:01:26.936Z,47.63
2018-03-29T18:03:57.795Z,47.95
2018-03-29T18:06:28.756Z,48.61
2018-03-29T18:08:59.745Z,48.30
2018-03-29T18:11:30.808Z,48.55
2018-03-29T18:14:01.745Z,48.50
2018-03-29T18:16:32.439Z,48.75
2018-03-29T18:19:03.172Z,48.99
2018-03-29T18:21:33.861Z,49.44
2018-03-29T18:24:05.169Z,49.60
2018-03-29T18:26:35.900Z,50.02
2018-03-29T18:29:06.697Z,50.17
2018-03-29T18:31:37.377Z,50.33
2018-03-29T18:34:08.142Z,51.05
2018-03-29T18:36:40.771Z,51.16
2018-03-29T18:39:11.281Z,51.64
2018-03-29T18:41:41.324Z,52.19
2018-03-29T18:44:11.828Z,52.57
2018-03-29T18:46:42.891Z,52.54
2018-03-29T18:49:14.126Z,52.80
2018-03-29T18:51:44.925Z,53.28
2018-03-29T18:54:15.417Z,53.49
2018-03-29T18:56:46.237Z,53.42
2018-03-29T18:59:16.834Z,53.53
2018-03-29T19:01:47.953Z,53.66
2018-03-29T19:04:18.789Z,53.89
2018-03-29T19:06:49.774Z,53.87
2018-03-29T19:09:20.803Z,54.26
2018-03-29T19:11:52.175Z,54.13
2018-03-29T19:14:22.851Z,54.34
2018-03-29T19:16:53.825Z,54.50
2018-03-29T19:19:26.475Z,54.29
2018-03-29T19:21:55.848Z,54.59
2018-03-29T19:24:26.473Z,54.27
2018-03-29T19:26:57.280Z,54.42
2018-03-29T19:29:27.813Z,54.50
2018-03-29T19:31:59.480Z,54.51
2018-03-29T19:34:30.348Z,54.53
2018-03-29T19:37:00.966Z,54.60
2018-03-29T19:39:31.727Z,54.77
2018-03-29T19:42:02.822Z,54.79
2018-03-29T19:44:33.784Z,54.78
2018-03-29T19:47:04.880Z,54.75
2018-03-29T19:49:35.747Z,55.16
2018-03-29T19:52:06.838Z,55.21
2018-03-29T19:54:37.826Z,55.13
2018-03-29T19:57:08.797Z,55.24
2018-03-29T19:59:39.869Z,55.27
2018-03-29T20:02:10.995Z,55.35
2018-03-29T20:04:41.724Z,55.29
2018-03-29T20:07:12.823Z,55.33
2018-03-29T20:09:43.750Z,55.56
2018-03-29T20:12:14.934Z,55.79
2018-03-29T20:14:45.714Z,55.80
2018-03-29T20:17:16.866Z,55.71
2018-03-29T20:19:47.541Z,56.00
2018-03-29T20:22:18.477Z,55.84
2018-03-29T20:24:49.524Z,55.91
2018-03-29T20:27:20.657Z,55.95
2018-03-29T20:29:51.708Z,56.08
2018-03-29T20:32:22.804Z,56.27
2018-03-29T20:34:53.832Z,56.29
2018-03-29T20:37:24.765Z,56.35
2018-03-29T20:39:55.817Z,56.27
2018-03-29T20:42:26.744Z,56.47
2018-03-29T20:44:57.768Z,56.40
2018-03-29T20:47:28.814Z,56.60
2018-03-29T20:49:59.709Z,56.62
2018-03-29T20:52:30.853Z,56.57
2018-03-29T20:55:01.700Z,56.71
2018-03-29T20:57:32.839Z,56.77
2018-03-29T21:00:03.687Z,56.74
2018-03-29T21:02:34.941Z,56.82
2018-03-29T21:05:05.808Z,56.87
2018-03-29T21:07:36.437Z,56.83
2018-03-29T21:10:07.174Z,57.00
2018-03-29T21:12:37.810Z,57.00
2018-03-29T21:15:08.852Z,56.95
2018-03-29T21:17:39.889Z,56.99
2018-03-29T21:20:10.777Z,57.08
2018-03-29T21:22:41.859Z,57.04
2018-03-29T21:25:12.771Z,57.09
2018-03-29T21:27:48.956Z,57.23
2018-03-29T21:30:18.596Z,57.17
2018-03-29T21:32:48.143Z,57.13
2018-03-29T21:35:17.669Z,57.25
2018-03-29T21:37:48.448Z,57.34
2018-03-29T21:40:20.348Z,57.67
2018-03-29T21:42:50.132Z,57.58
2018-03-29T21:45:20.812Z,57.70
2018-03-29T21:47:51.844Z,57.93
2018-03-29T21:50:22.747Z,57.98
2018-03-29T21:52:53.846Z,57.94
2018-03-29T21:55:24.689Z,57.98
2018-03-29T21:57:55.465Z,58.07
2018-03-29T22:00:26.225Z,58.22
2018-03-29T22:02:56.936Z,58.34
2018-03-29T22:05:27.801Z,58.42
2018-03-29T22:07:58.765Z,58.46
2018-03-29T22:10:29.761Z,58.55
2018-03-29T22:13:00.868Z,58.52
2018-03-29T22:15:31.788Z,58.59
2018-03-29T22:18:02.892Z,58.69
2018-03-29T22:20:33.837Z,58.84
2018-03-29T22:23:04.843Z,58.95
2018-03-29T22:25:35.355Z,58.67
2018-03-29T22:28:06.190Z,59.02
2018-03-29T22:30:36.808Z,59.43
2018-03-29T22:33:07.789Z,59.38
2018-03-29T22:35:38.750Z,59.37
2018-03-29T22:38:09.464Z,59.34
2018-03-29T22:40:40.139Z,59.13
2018-03-29T22:43:10.883Z,59.26
2018-03-29T22:45:41.719Z,59.36
2018-03-29T22:48:12.612Z,59.50
2018-03-29T22:50:43.628Z,59.45
2018-03-29T22:53:14.699Z,59.61
2018-03-29T22:55:45.741Z,59.66
2018-03-29T22:58:16.821Z,59.80
2018-03-29T23:00:47.864Z,59.81
2018-03-29T23:03:18.687Z,59.81
2018-03-29T23:05:49.799Z,59.76
2018-03-29T23:08:20.650Z,59.77
2018-03-29T23:10:52.728Z,59.89
2018-03-29T23:13:23.438Z,60.70
2018-03-29T23:15:54.244Z,60.63
2018-03-29T23:18:24.158Z,61.05
2018-03-29T23:20:54.811Z,61.11
2018-03-29T23:23:26.312Z,61.03
2018-03-29T23:25:56.861Z,61.03
2018-03-29T23:28:27.656Z,60.71
2018-03-29T23:30:58.790Z,60.97
2018-03-29T23:33:29.721Z,61.01
2018-03-29T23:36:00.443Z,61.18
2018-03-29T23:38:31.200Z,60.98
2018-03-29T23:41:01.859Z,60.99
2018-03-29T23:43:32.932Z,61.16
2018-03-29T23:46:03.566Z,61.20
2018-03-29T23:48:34.249Z,61.20
2018-03-29T23:51:04.835Z,61.25
2018-03-29T23:53:35.764Z,61.41
2018-03-29T23:56:06.900Z,61.51
2018-03-29T23:58:37.687Z,61.37
